Time;durP1;ratioP1;P1;durP2;ratioP2;P2;SDS_P1;SDS_P2;PMS_P1;PMS_P2;Temp;Humidity;BMP_temperature;BMP_pressure;BME280_temperature;BME280_humidity;BME280_pressure;Samples;Min_cycle;Max_cycle;Signal;HPM_P1;HPM_P2
2023/08/02 00:00:21;;;;;;;10.35;3.78;;;;;;;15.30;97.55;100064.13;5022392;28;20046;-64
2023/08/02 00:02:47;;;;;;;11.85;3.90;;;;;;;15.28;97.70;100058.19;5018527;28;20026;-64
2023/08/02 00:05:12;;;;;;;7.95;3.72;;;;;;;15.30;97.84;100054.25;5020518;28;20033;-65
2023/08/02 00:07:37;;;;;;;13.10;4.00;;;;;;;15.30;97.43;100043.53;5021356;28;20091;-65
2023/08/02 00:10:03;;;;;;;10.82;3.80;;;;;;;15.28;97.87;100045.63;5022631;28;20025;-65
2023/08/02 00:12:29;;;;;;;12.50;3.85;;;;;;;15.23;97.81;100047.31;5020270;28;20026;-65
2023/08/02 00:14:54;;;;;;;9.38;3.92;;;;;;;15.19;97.91;100050.44;5021195;28;20023;-65
2023/08/02 00:17:19;;;;;;;9.70;3.92;;;;;;;15.14;97.78;100060.16;5018231;28;20413;-64
2023/08/02 00:19:44;;;;;;;9.77;3.97;;;;;;;15.09;98.15;100063.50;5021852;28;20041;-65
2023/08/02 00:22:10;;;;;;;10.27;3.80;;;;;;;15.02;98.34;100060.03;5017232;28;20025;-64
2023/08/02 00:24:35;;;;;;;8.77;4.00;;;;;;;14.98;98.49;100063.38;5023559;28;20033;-65
2023/08/02 00:27:00;;;;;;;11.52;4.15;;;;;;;14.93;98.35;100057.88;5020145;28;20168;-64
2023/08/02 00:29:25;;;;;;;14.57;4.15;;;;;;;14.89;98.85;100054.81;5021919;28;20594;-64
2023/08/02 00:31:51;;;;;;;10.48;4.30;;;;;;;14.85;99.20;100048.28;5013830;28;20026;-65
2023/08/02 00:34:16;;;;;;;9.32;3.85;;;;;;;14.80;99.62;100051.59;5018744;28;20067;-64
2023/08/02 00:36:41;;;;;;;12.15;4.40;;;;;;;14.77;99.81;100046.69;5020437;28;20036;-65
2023/08/02 00:39:07;;;;;;;13.43;4.03;;;;;;;14.75;100.00;100040.75;5015752;28;20030;-64
2023/08/02 00:41:32;;;;;;;11.32;3.95;;;;;;;14.73;100.00;100031.28;5027185;28;20095;-64
2023/08/02 00:43:58;;;;;;;13.52;3.63;;;;;;;14.71;100.00;100028.84;5020108;28;20067;-64
2023/08/02 00:46:23;;;;;;;13.10;3.83;;;;;;;14.67;100.00;100027.63;5020644;28;20498;-65
2023/08/02 00:48:49;;;;;;;8.77;3.85;;;;;;;14.66;100.00;100026.00;5022374;28;20049;-65
2023/08/02 00:51:17;;;;;;;12.57;4.20;;;;;;;14.63;100.00;100026.44;5021153;28;20053;-65
2023/08/02 00:53:44;;;;;;;11.65;4.20;;;;;;;14.60;100.00;100021.53;5020308;28;20029;-65
2023/08/02 00:56:10;;;;;;;14.27;4.75;;;;;;;14.59;100.00;100017.22;5016604;28;20040;-65
2023/08/02 00:58:36;;;;;;;9.20;3.83;;;;;;;14.56;100.00;100010.47;5019855;28;20411;-65
2023/08/02 01:01:07;;;;;;;12.05;4.10;;;;;;;14.56;100.00;100007.78;5019259;28;20037;-64
2023/08/02 01:03:36;;;;;;;12.52;4.20;;;;;;;14.54;100.00;100001.03;5022275;28;21101;-65
2023/08/02 01:06:11;;;;;;;8.95;3.97;;;;;;;14.53;100.00;100010.91;5016956;28;20061;-64
2023/08/02 01:08:40;;;;;;;7.78;3.80;;;;;;;14.54;100.00;100007.19;5017554;28;20156;-64
2023/08/02 01:11:22;;;;;;;;;;;;;;;14.56;100.00;100010.47;5022045;28;20051;-65
2023/08/02 01:13:50;;;;;;;7.63;3.55;;;;;;;14.56;100.00;100013.13;5024208;28;19994;-65
2023/08/02 01:16:16;;;;;;;11.73;4.00;;;;;;;14.57;100.00;100011.28;5020361;28;20036;-64
2023/08/02 01:18:42;;;;;;;12.02;4.00;;;;;;;14.57;100.00;100020.09;5021279;28;20109;-64
2023/08/02 01:21:07;;;;;;;10.38;3.67;;;;;;;14.60;100.00;100013.50;5023484;28;20117;-65
2023/08/02 01:23:33;;;;;;;11.27;3.63;;;;;;;14.61;100.00;100004.47;5019006;28;20057;-64
2023/08/02 01:26:00;;;;;;;9.23;3.78;;;;;;;14.61;100.00;100004.47;5020763;28;20533;-65
2023/08/02 01:28:27;;;;;;;9.88;3.60;;;;;;;14.61;100.00;100003.63;5023013;28;20029;-65
2023/08/02 01:30:54;;;;;;;10.40;3.85;;;;;;;14.62;100.00;100007.94;5024345;28;20042;-65
2023/08/02 01:33:21;;;;;;;7.95;3.63;;;;;;;14.64;100.00;100003.19;5020152;28;20021;-64
2023/08/02 01:35:46;;;;;;;11.57;3.80;;;;;;;14.63;100.00;99988.22;5027007;28;20426;-64
2023/08/02 01:38:11;;;;;;;9.00;3.72;;;;;;;14.67;100.00;99997.41;5023362;28;20111;-64
2023/08/02 01:40:37;;;;;;;7.80;3.58;;;;;;;14.70;100.00;99996.97;5026178;28;20116;-64
2023/08/02 01:43:02;;;;;;;10.77;3.65;;;;;;;14.72;100.00;99989.56;5025767;28;20449;-64
2023/08/02 01:45:27;;;;;;;9.13;3.80;;;;;;;14.73;100.00;99993.88;5020203;28;20075;-65
2023/08/02 01:47:54;;;;;;;12.02;3.92;;;;;;;14.77;100.00;99984.41;5026891;28;20112;-65
2023/08/02 01:50:19;;;;;;;8.43;4.10;;;;;;;14.78;100.00;99980.69;5018304;28;20032;-65
2023/08/02 01:52:48;;;;;;;14.73;4.25;;;;;;;14.81;100.00;99978.41;5024924;28;20032;-64
2023/08/02 01:55:14;;;;;;;11.77;4.10;;;;;;;14.83;100.00;99975.50;5028032;28;20419;-64
2023/08/02 01:57:39;;;;;;;11.02;3.95;;;;;;;14.85;100.00;99954.72;5021644;28;20037;-65
2023/08/02 02:00:05;;;;;;;15.82;3.90;;;;;;;14.86;100.00;99951.00;5017923;28;20044;-64
2023/08/02 02:02:30;;;;;;;12.48;3.80;;;;;;;14.90;100.00;99952.19;5029949;28;20025;-65
2023/08/02 02:04:55;;;;;;;8.95;3.50;;;;;;;14.93;100.00;99937.56;5020896;28;20460;-65
2023/08/02 02:07:20;;;;;;;13.65;3.70;;;;;;;14.95;100.00;99933.63;5025183;28;20053;-64
2023/08/02 02:09:46;;;;;;;10.60;3.70;;;;;;;14.97;100.00;99930.72;5026594;28;20040;-64
2023/08/02 02:12:11;;;;;;;8.65;3.50;;;;;;;14.99;100.00;99921.44;5020320;28;20022;-65
2023/08/02 02:14:36;;;;;;;10.00;3.53;;;;;;;15.00;100.00;99914.25;5022032;28;20024;-65
2023/08/02 02:17:02;;;;;;;14.02;4.03;;;;;;;15.00;100.00;99912.38;5029786;28;20036;-64
2023/08/02 02:19:27;;;;;;;10.70;4.30;;;;;;;15.00;100.00;99912.38;5022828;28;20771;-64
2023/08/02 02:21:53;;;;;;;9.73;3.55;;;;;;;15.01;100.00;99905.19;5024630;28;20544;-64
2023/08/02 02:24:18;;;;;;;11.43;3.88;;;;;;;15.01;100.00;99902.50;5021329;28;20037;-65
2023/08/02 02:26:43;;;;;;;11.98;3.72;;;;;;;15.02;100.00;99886.25;5023375;28;20059;-65
2023/08/02 02:29:08;;;;;;;14.07;3.63;;;;;;;15.03;100.00;99884.38;5019666;28;20045;-64
2023/08/02 02:31:34;;;;;;;9.68;3.40;;;;;;;15.05;100.00;99874.31;5017992;28;20029;-64
2023/08/02 02:33:59;;;;;;;9.15;3.65;;;;;;;15.07;100.00;99856.19;5011452;28;20037;-65
2023/08/02 02:36:24;;;;;;;13.30;4.57;;;;;;;15.13;100.00;99871.31;5021750;28;20542;-64
2023/08/02 02:38:49;;;;;;;10.45;3.70;;;;;;;15.17;100.00;99864.50;5011860;28;20026;-65
2023/08/02 02:41:15;;;;;;;10.77;3.72;;;;;;;15.18;100.00;99858.91;5019174;28;20041;-65
2023/08/02 02:43:40;;;;;;;8.35;3.60;;;;;;;15.20;100.00;99848.00;5020747;28;20031;-65
2023/08/02 02:46:05;;;;;;;11.38;3.70;;;;;;;15.22;100.00;99850.44;5012301;28;20025;-65
2023/08/02 02:48:31;;;;;;;16.92;4.60;;;;;;;15.26;100.00;99854.28;5023215;28;20021;-64
2023/08/02 02:50:56;;;;;;;10.10;3.67;;;;;;;15.27;100.00;99862.09;5011720;28;20021;-64
2023/08/02 02:53:23;;;;;;;10.55;4.00;;;;;;;15.27;100.00;99861.28;5018354;28;20026;-65
2023/08/02 02:55:48;;;;;;;9.43;3.88;;;;;;;15.27;100.00;99862.09;5019291;28;20033;-64
2023/08/02 02:58:14;;;;;;;12.18;3.80;;;;;;;15.28;100.00;99857.56;5015545;28;20161;-65
2023/08/02 03:00:39;;;;;;;12.68;3.30;;;;;;;15.28;100.00;99838.81;5019555;28;20045;-65
2023/08/02 03:03:04;;;;;;;10.77;3.90;;;;;;;15.30;100.00;99842.09;5021460;28;20097;-65
2023/08/02 03:05:29;;;;;;;11.70;4.25;;;;;;;15.32;100.00;99826.63;5011683;28;20029;-65
2023/08/02 03:07:55;;;;;;;11.05;3.80;;;;;;;15.34;100.00;99828.06;5024654;28;20046;-64
2023/08/02 03:10:20;;;;;;;11.63;3.50;;;;;;;15.35;100.00;99815.50;5017164;28;20033;-65
2023/08/02 03:12:45;;;;;;;6.43;3.08;;;;;;;15.36;100.00;99801.09;5022306;28;20072;-65
2023/08/02 03:15:10;;;;;;;10.95;4.30;;;;;;;15.37;100.00;99781.31;5020136;28;20024;-64
2023/08/02 03:17:36;;;;;;;9.02;3.50;;;;;;;15.39;100.00;99774.69;5015778;28;20123;-65
2023/08/02 03:20:01;;;;;;;9.93;3.75;;;;;;;15.39;100.00;99774.69;5012017;28;20037;-65
2023/08/02 03:22:26;;;;;;;8.52;3.42;;;;;;;15.40;100.00;99770.16;5017350;28;20083;-65
2023/08/02 03:24:51;;;;;;;9.32;3.60;;;;;;;15.40;100.00;99767.47;5009041;28;20117;-65
2023/08/02 03:27:17;;;;;;;6.35;3.05;;;;;;;15.42;100.00;99757.38;5021589;28;20072;-64
2023/08/02 03:29:42;;;;;;;10.57;4.20;;;;;;;15.43;100.00;99753.66;5032651;28;20025;-64
2023/08/02 03:32:08;;;;;;;8.63;3.63;;;;;;;15.43;100.00;99745.63;5022358;28;20570;-65
2023/08/02 03:34:33;;;;;;;8.02;3.58;;;;;;;15.39;100.00;99742.59;5021707;28;20426;-65
2023/08/02 03:36:58;;;;;;;9.65;3.70;;;;;;;15.41;100.00;99750.38;5027086;28;20112;-65
2023/08/02 03:39:27;;;;;;;7.28;3.42;;;;;;;15.42;100.00;99744.81;5020486;28;20044;-65
2023/08/02 03:41:53;;;;;;;12.93;3.78;;;;;;;15.44;100.00;99741.91;5020692;28;20037;-65
2023/08/02 03:44:19;;;;;;;9.43;3.28;;;;;;;15.43;100.00;99735.72;5019132;28;20462;-65
2023/08/02 03:46:44;;;;;;;9.75;3.42;;;;;;;15.44;100.00;99728.53;5016404;28;20100;-65
2023/08/02 03:49:09;;;;;;;10.65;3.50;;;;;;;15.45;100.00;99736.31;5016504;28;20025;-65
2023/08/02 03:51:34;;;;;;;9.43;3.50;;;;;;;15.46;100.00;99726.44;5022268;28;20052;-65
2023/08/02 03:54:00;;;;;;;7.82;3.50;;;;;;;15.45;100.00;99724.78;5019527;28;20119;-65
2023/08/02 03:56:25;;;;;;;8.55;3.53;;;;;;;15.47;100.00;99709.31;5017516;28;20486;-65
2023/08/02 03:58:50;;;;;;;7.38;3.35;;;;;;;15.46;100.00;99705.03;5023827;28;20028;-65
2023/08/02 04:01:16;;;;;;;6.82;2.95;;;;;;;15.48;100.00;99702.94;5019054;28;20026;-64
2023/08/02 04:03:41;;;;;;;7.88;3.55;;;;;;;15.51;100.00;99702.47;5022875;28;20163;-65
2023/08/02 04:06:06;;;;;;;5.90;3.15;;;;;;;15.55;100.00;99697.47;5021158;28;20418;-65
2023/08/02 04:08:32;;;;;;;7.72;3.38;;;;;;;15.56;100.00;99699.09;5025423;28;20029;-65
2023/08/02 04:11:03;;;;;;;8.80;3.03;;;;;;;15.56;100.00;99691.88;5018773;28;20491;-65
2023/08/02 04:13:28;;;;;;;8.02;3.60;;;;;;;15.57;100.00;99684.66;5017254;28;20088;-65
2023/08/02 04:15:53;;;;;;;12.60;3.97;;;;;;;15.59;100.00;99669.22;5026612;28;20422;-65
2023/08/02 04:18:18;;;;;;;7.60;3.38;;;;;;;15.59;100.00;99662.00;5017233;28;20034;-65
2023/08/02 04:20:43;;;;;;;7.82;3.60;;;;;;;15.62;100.00;99664.25;5022808;28;20032;-65
2023/08/02 04:23:09;;;;;;;8.75;3.28;;;;;;;15.60;100.00;99652.13;5018091;28;20090;-65
2023/08/02 04:25:34;;;;;;;7.78;3.50;;;;;;;15.62;100.00;99650.06;5020295;28;20029;-65
2023/08/02 04:27:59;;;;;;;9.23;3.92;;;;;;;15.62;100.00;99645.50;5017628;28;20032;-65
2023/08/02 04:30:24;;;;;;;6.55;3.47;;;;;;;15.60;100.00;99642.22;5017757;28;20437;-65
2023/08/02 04:32:50;;;;;;;8.93;4.10;;;;;;;15.63;100.00;99633.75;5022136;28;20109;-65
2023/08/02 04:35:16;;;;;;;13.55;4.15;;;;;;;15.63;100.00;99628.41;5016510;28;20088;-65
2023/08/02 04:37:41;;;;;;;8.32;4.00;;;;;;;15.65;100.00;99612.13;5020310;28;20042;-65
2023/08/02 04:40:07;;;;;;;8.75;3.95;;;;;;;15.65;100.00;99601.41;5022773;28;20030;-65
2023/08/02 04:42:32;;;;;;;10.18;4.13;;;;;;;15.66;100.00;99600.38;5022464;28;20059;-65
2023/08/02 04:44:58;;;;;;;8.93;4.03;;;;;;;15.65;100.00;99588.03;5016758;28;20108;-64
2023/08/02 04:47:23;;;;;;;7.90;4.30;;;;;;;15.65;100.00;99580.00;5021009;28;20077;-64
2023/08/02 04:49:48;;;;;;;8.75;4.55;;;;;;;15.64;100.00;99581.06;5027869;28;20029;-64
2023/08/02 04:52:13;;;;;;;10.02;4.75;;;;;;;15.63;100.00;99564.19;5024189;28;20017;-65
2023/08/02 04:54:38;;;;;;;8.38;4.15;;;;;;;15.64;100.00;99562.31;5024352;28;20053;-64
2023/08/02 04:57:04;;;;;;;8.95;4.40;;;;;;;15.62;100.00;99562.56;5024555;28;20032;-64
2023/08/02 04:59:29;;;;;;;10.98;4.25;;;;;;;15.62;100.00;99551.84;5022639;28;20032;-65
2023/08/02 05:01:54;;;;;;;10.48;4.45;;;;;;;15.61;100.00;99544.88;5025754;28;20045;-64
2023/08/02 05:04:20;;;;;;;10.77;4.80;;;;;;;15.61;100.00;99546.69;5026135;28;20029;-65
2023/08/02 05:06:45;;;;;;;8.68;4.32;;;;;;;15.59;100.00;99548.81;5027291;28;20109;-64
2023/08/02 05:09:11;;;;;;;10.38;4.95;;;;;;;15.58;100.00;99533.75;5024002;28;20025;-65
2023/08/02 05:11:40;;;;;;;11.30;4.32;;;;;;;15.59;100.00;99546.13;5024692;28;20096;-65
2023/08/02 05:14:05;;;;;;;8.55;4.38;;;;;;;15.58;100.00;99534.59;5021680;28;20052;-65
2023/08/02 05:16:30;;;;;;;8.43;4.55;;;;;;;15.59;100.00;99533.56;5024390;28;20049;-65
2023/08/02 05:18:55;;;;;;;10.27;4.90;;;;;;;15.60;100.00;99529.84;5022995;28;20026;-64
2023/08/02 05:21:23;;;;;;;10.55;5.18;;;;;;;15.61;100.00;99525.28;5024187;28;20034;-64
2023/08/02 05:23:48;;;;;;;12.35;4.90;;;;;;;15.62;100.00;99511.69;5025008;28;20112;-65
2023/08/02 05:26:13;;;;;;;8.77;4.82;;;;;;;15.62;100.00;99511.69;5024822;28;20037;-64
2023/08/02 05:28:39;;;;;;;11.45;4.82;;;;;;;15.60;100.00;99508.41;5019905;28;20041;-64
2023/08/02 05:31:12;;;;;;;9.80;4.93;;;;;;;15.59;100.00;99501.44;5022994;28;20099;-65
2023/08/02 05:33:38;;;;;;;10.23;5.72;;;;;;;15.56;100.00;99490.38;5022871;28;20029;-65
2023/08/02 05:36:04;;;;;;;7.63;4.68;;;;;;;15.55;100.00;99486.88;5021158;28;20033;-64
2023/08/02 05:38:32;;;;;;;9.48;5.15;;;;;;;15.55;100.00;99472.69;5020932;28;20037;-65
2023/08/02 05:41:01;;;;;;;9.90;5.05;;;;;;;15.53;100.00;99472.13;5023414;28;20104;-64
2023/08/02 05:43:26;;;;;;;;;;;;;;;15.58;100.00;99465.03;5021440;28;20033;-64
2023/08/02 05:45:55;;;;;;;8.50;4.82;;;;;;;15.50;100.00;99460.03;5023062;28;19991;-65
2023/08/02 05:48:20;;;;;;;8.23;4.97;;;;;;;15.51;100.00;99450.94;5024060;28;20404;-65
2023/08/02 05:50:46;;;;;;;7.25;4.68;;;;;;;15.50;100.00;99446.66;5021695;28;20510;-66
2023/08/02 05:53:11;;;;;;;9.40;4.53;;;;;;;15.50;100.00;99439.44;5015706;28;20482;-65
2023/08/02 05:55:36;;;;;;;8.50;4.90;;;;;;;15.48;100.00;99435.38;5014388;28;20029;-66
2023/08/02 05:58:02;;;;;;;7.57;4.82;;;;;;;15.47;100.00;99433.75;5016267;28;20076;-65
2023/08/02 06:00:27;;;;;;;7.43;5.03;;;;;;;15.45;100.00;99417.94;5021336;28;20025;-65
2023/08/02 06:02:52;;;;;;;11.75;5.10;;;;;;;15.45;100.00;99417.94;5019337;28;21049;-65
2023/08/02 06:05:17;;;;;;;8.73;4.75;;;;;;;15.46;100.00;99405.38;5022045;28;20046;-65
2023/08/02 06:07:43;;;;;;;7.20;4.75;;;;;;;15.44;100.00;99392.22;5023075;28;20025;-65
2023/08/02 06:10:08;;;;;;;7.38;4.68;;;;;;;15.45;100.00;99385.00;5019360;28;20561;-64
2023/08/02 06:12:33;;;;;;;6.70;4.53;;;;;;;15.39;100.00;99367.25;5017043;28;20033;-65
2023/08/02 06:14:59;;;;;;;6.85;4.28;;;;;;;15.45;100.00;99369.78;5020703;28;20025;-65
2023/08/02 06:17:26;;;;;;;5.82;4.18;;;;;;;15.43;100.00;99361.19;5022380;28;20441;-65
2023/08/02 06:19:51;;;;;;;7.88;4.18;;;;;;;15.43;100.00;99358.50;5014068;28;20753;-66
2023/08/02 06:22:17;;;;;;;8.82;5.10;;;;;;;15.42;100.00;99346.19;5024413;28;20120;-65
2023/08/02 06:24:43;;;;;;;6.85;4.53;;;;;;;15.43;100.00;99347.00;5019348;28;20056;-66
2023/08/02 06:27:09;;;;;;;7.28;4.50;;;;;;;15.41;100.00;99343.75;5021406;28;20707;-65
2023/08/02 06:29:34;;;;;;;7.22;3.97;;;;;;;15.40;100.00;99334.09;5027317;28;20025;-65
2023/08/02 06:31:59;;;;;;;7.25;4.07;;;;;;;15.42;100.00;99327.44;5025688;28;20051;-66
2023/08/02 06:34:25;;;;;;;6.63;3.97;;;;;;;15.40;100.00;99312.69;5021760;28;20026;-66
2023/08/02 06:36:50;;;;;;;6.32;3.95;;;;;;;15.42;100.00;99311.41;5023113;28;20582;-65
2023/08/02 06:39:16;;;;;;;7.10;3.65;;;;;;;15.43;100.00;99314.88;5015665;28;20029;-66
2023/08/02 06:41:41;;;;;;;4.18;3.65;;;;;;;15.44;100.00;99300.47;5018947;28;20055;-66
2023/08/02 06:44:06;;;;;;;5.15;3.53;;;;;;;15.44;100.00;99292.44;5019124;28;20041;-66
2023/08/02 06:46:33;;;;;;;5.82;3.60;;;;;;;15.43;100.00;99296.97;5022985;28;20060;-66
2023/08/02 06:48:58;;;;;;;3.90;3.25;;;;;;;15.45;100.00;99288.69;5020972;28;20037;-65
2023/08/02 06:51:23;;;;;;;4.53;3.10;;;;;;;15.45;100.00;99284.16;5026723;28;20045;-66
2023/08/02 06:53:48;;;;;;;4.20;3.05;;;;;;;15.48;100.00;99269.50;5025617;28;20049;-66
2023/08/02 06:56:16;;;;;;;4.35;3.13;;;;;;;15.48;100.00;99262.28;5022105;28;20033;-65
2023/08/02 06:58:41;;;;;;;4.72;2.90;;;;;;;15.47;100.00;99249.94;5021967;28;20033;-66
2023/08/02 07:01:12;;;;;;;2.97;2.70;;;;;;;15.48;100.00;99240.06;5021295;28;20036;-65
2023/08/02 07:03:37;;;;;;;4.22;2.70;;;;;;;15.44;100.00;99228.22;5018885;28;20040;-65
2023/08/02 07:06:08;;;;;;;2.70;2.50;;;;;;;15.49;100.00;99220.28;5023355;28;20521;-66
2023/08/02 07:08:33;;;;;;;2.67;2.38;;;;;;;15.52;100.00;99219.78;5023290;28;20071;-65
2023/08/02 07:10:58;;;;;;;3.80;2.50;;;;;;;15.55;100.00;99211.28;5017248;28;20021;-66
2023/08/02 07:13:23;;;;;;;3.35;2.42;;;;;;;15.54;100.00;99209.66;5019504;28;20049;-66
2023/08/02 07:15:49;;;;;;;2.63;2.30;;;;;;;15.56;100.00;99191.50;5017041;28;20612;-66
2023/08/02 07:18:14;;;;;;;3.22;2.60;;;;;;;15.57;100.00;99195.78;5024374;28;20095;-65
2023/08/02 07:20:39;;;;;;;3.28;2.47;;;;;;;15.59;100.00;99196.38;5030683;28;20021;-66
2023/08/02 07:23:04;;;;;;;5.75;2.47;;;;;;;15.61;100.00;99190.78;5011575;28;20028;-65
2023/08/02 07:25:30;;;;;;;3.00;2.67;;;;;;;15.62;100.00;99187.09;5020348;28;20021;-66
2023/08/02 07:27:55;;;;;;;2.92;2.63;;;;;;;15.63;100.00;99188.72;5020719;28;20041;-65
2023/08/02 07:30:20;;;;;;;3.55;2.67;;;;;;;15.63;100.00;99178.81;5016652;28;20041;-65
2023/08/02 07:32:45;;;;;;;3.28;2.45;;;;;;;15.65;100.00;99178.56;5023303;28;20028;-66
2023/08/02 07:35:11;;;;;;;3.17;2.30;;;;;;;15.66;100.00;99181.00;5019037;28;20117;-65
2023/08/02 07:37:36;;;;;;;4.93;2.33;;;;;;;15.68;100.00;99178.09;5020054;28;20029;-65
2023/08/02 07:40:01;;;;;;;3.10;2.47;;;;;;;15.70;100.00;99163.41;5019155;28;20014;-65
2023/08/02 07:42:27;;;;;;;3.65;2.50;;;;;;;15.73;100.00;99160.22;5018090;28;20039;-65
2023/08/02 07:45:06;;;;;;;2.58;2.38;;;;;;;15.77;100.00;99160.53;5018957;28;20037;-65
2023/08/02 07:47:32;;;;;;;4.15;2.67;;;;;;;15.82;100.00;99147.22;5020709;28;20029;-64
2023/08/02 07:49:57;;;;;;;2.60;2.38;;;;;;;15.86;100.00;99142.19;5025124;28;20053;-65
2023/08/02 07:52:23;;;;;;;2.83;2.60;;;;;;;15.88;100.00;99132.84;5021606;28;20060;-65
2023/08/02 07:54:48;;;;;;;3.30;2.72;;;;;;;15.96;100.00;99120.94;5020398;28;20068;-65
2023/08/02 07:57:13;;;;;;;2.50;2.30;;;;;;;15.98;100.00;99124.16;5026791;28;20399;-65
2023/08/02 07:59:38;;;;;;;3.17;2.88;;;;;;;16.05;100.00;99119.44;5013202;28;20029;-65
2023/08/02 08:02:04;;;;;;;4.38;3.10;;;;;;;16.12;100.00;99106.66;5014354;28;20034;-66
2023/08/02 08:04:29;;;;;;;4.80;3.13;;;;;;;16.14;100.00;99120.63;5020885;28;20030;-65
2023/08/02 08:06:54;;;;;;;3.60;2.72;;;;;;;16.14;100.00;99117.13;5018963;28;20049;-66
2023/08/02 08:09:23;;;;;;;3.40;2.63;;;;;;;16.17;100.00;99112.06;5024500;28;20497;-65
2023/08/02 08:11:49;;;;;;;;;;;;;;;16.22;100.00;99108.69;5018167;28;20375;-65
2023/08/02 08:14:14;;;;;;;3.40;2.90;;;;;;;16.21;100.00;99107.06;5021958;28;19920;-65
2023/08/02 08:16:39;;;;;;;3.15;2.40;;;;;;;16.20;100.00;99098.22;5020863;28;20478;-65
2023/08/02 08:19:04;;;;;;;2.47;2.28;;;;;;;16.19;100.00;99096.59;5020371;28;20044;-65
2023/08/02 08:21:31;;;;;;;3.25;2.33;;;;;;;16.17;100.00;99092.53;5027330;28;20025;-65
2023/08/02 08:23:56;;;;;;;3.25;2.47;;;;;;;16.19;100.00;99093.91;5020705;28;20021;-65
2023/08/02 08:26:22;;;;;;;3.15;2.40;;;;;;;16.23;100.00;99094.22;5024001;28;20029;-67
2023/08/02 08:28:47;;;;;;;2.55;2.08;;;;;;;16.26;100.00;99089.19;5022527;28;20166;-67
2023/08/02 08:31:13;;;;;;;3.38;2.20;;;;;;;16.29;100.00;99083.31;5019626;28;20025;-67
2023/08/02 08:33:38;;;;;;;3.25;2.17;;;;;;;16.31;100.00;99083.06;5025293;28;20029;-66
2023/08/02 08:36:04;;;;;;;2.55;2.30;;;;;;;16.35;100.00;99089.53;5021359;28;20548;-66
2023/08/02 08:38:30;;;;;;;2.83;2.40;;;;;;;16.33;100.00;99088.97;5007658;28;20586;-66
2023/08/02 08:40:56;;;;;;;2.35;1.95;;;;;;;16.34;100.00;99094.09;5027375;28;20041;-65
2023/08/02 08:43:28;;;;;;;3.20;2.03;;;;;;;16.35;100.00;99098.38;5030865;28;20082;-65
2023/08/02 08:45:54;;;;;;;3.40;2.40;;;;;;;16.42;100.00;99090.94;5024797;28;20025;-65
2023/08/02 08:48:19;;;;;;;4.25;2.10;;;;;;;16.46;100.00;99079.72;5027747;28;20025;-66
2023/08/02 08:50:46;;;;;;;2.60;2.10;;;;;;;16.52;100.00;99084.91;5029939;28;20033;-65
2023/08/02 08:53:17;;;;;;;2.38;2.00;;;;;;;16.61;100.00;99077.22;5021244;28;20018;-65
2023/08/02 08:55:44;;;;;;;2.40;2.20;;;;;;;16.72;100.00;99073.59;5026078;28;20507;-65
2023/08/02 08:58:10;;;;;;;2.50;2.30;;;;;;;16.77;100.00;99073.66;5021398;28;20030;-65
2023/08/02 09:00:36;;;;;;;2.65;2.20;;;;;;;16.89;100.00;99068.13;5021142;28;20172;-65
2023/08/02 09:03:03;;;;;;;2.75;2.38;;;;;;;17.04;100.00;99069.06;5021108;28;20025;-65
2023/08/02 09:05:30;;;;;;;2.45;2.25;;;;;;;17.12;100.00;99056.25;5030328;28;20838;-65
2023/08/02 09:07:58;;;;;;;2.80;2.60;;;;;;;17.27;100.00;99056.34;5034274;28;20166;-65
2023/08/02 09:10:23;;;;;;;2.60;2.35;;;;;;;17.36;100.00;99057.50;5021078;28;20032;-65
2023/08/02 09:12:48;;;;;;;3.28;2.40;;;;;;;17.44;100.00;99053.53;5018512;28;20026;-65
2023/08/02 09:15:15;;;;;;;2.50;2.00;;;;;;;17.47;100.00;99059.19;5016103;28;20116;-65
2023/08/02 09:17:46;;;;;;;3.47;2.22;;;;;;;17.55;100.00;99047.94;5021679;28;20022;-65
2023/08/02 09:20:12;;;;;;;2.80;2.00;;;;;;;17.65;100.00;99041.84;5022021;28;20025;-66
2023/08/02 09:22:37;;;;;;;2.45;1.90;;;;;;;17.73;100.00;99040.56;5026388;28;20546;-65
2023/08/02 09:25:07;;;;;;;2.42;2.10;;;;;;;17.91;100.00;99037.41;5023211;28;20114;-66
2023/08/02 09:27:32;;;;;;;1.83;1.70;;;;;;;17.91;100.00;99032.84;5024255;28;20548;-65
2023/08/02 09:29:57;;;;;;;1.88;1.70;;;;;;;17.94;100.00;99036.91;5019026;28;20029;-66
2023/08/02 09:32:25;;;;;;;1.73;1.45;;;;;;;18.00;100.00;99032.38;5018307;28;20076;-66
2023/08/02 09:34:53;;;;;;;1.92;1.48;;;;;;;18.04;100.00;99020.81;5027597;28;20399;-65
2023/08/02 09:37:39;;;;;;;3.78;1.75;;;;;;;18.14;100.00;99028.09;5021746;28;20048;-66
2023/08/02 09:40:09;;;;;;;2.13;1.60;;;;;;;18.21;100.00;99017.91;5020903;28;20053;-65
2023/08/02 09:42:34;;;;;;;1.60;1.50;;;;;;;18.35;100.00;99020.91;5036142;28;20017;-66
2023/08/02 09:45:03;;;;;;;1.50;1.40;;;;;;;18.42;100.00;99019.56;5024053;28;20364;-66
2023/08/02 09:47:29;;;;;;;1.70;1.60;;;;;;;18.61;100.00;99016.38;5022179;28;20105;-65
2023/08/02 09:50:06;;;;;;;1.42;1.33;;;;;;;18.64;100.00;99014.00;5034077;28;20104;-66
2023/08/02 09:52:32;;;;;;;2.05;1.20;;;;;;;18.64;100.00;99007.81;5020909;28;20494;-66
2023/08/02 09:54:58;;;;;;;1.40;1.30;;;;;;;18.61;100.00;99003.75;5027147;28;20029;-65
2023/08/02 09:57:26;;;;;;;1.50;1.40;;;;;;;18.61;100.00;98994.88;5024810;28;20029;-65
2023/08/02 09:59:52;;;;;;;2.28;1.50;;;;;;;18.58;100.00;98990.84;5018447;28;20436;-66
2023/08/02 10:02:22;;;;;;;1.40;1.30;;;;;;;18.54;100.00;98987.06;5026444;28;20095;-65
2023/08/02 10:04:48;;;;;;;2.80;1.55;;;;;;;18.51;100.00;98996.47;5021707;28;20034;-66
2023/08/02 10:07:16;;;;;;;1.83;1.67;;;;;;;18.48;100.00;99001.56;5020759;28;20022;-65
2023/08/02 10:09:41;;;;;;;2.35;1.90;;;;;;;18.51;100.00;98993.00;5019033;28;20022;-66
2023/08/02 10:12:11;;;;;;;2.90;2.45;;;;;;;18.57;100.00;98999.97;5034911;28;20013;-65
2023/08/02 10:14:36;;;;;;;2.97;2.00;;;;;;;18.65;100.00;98980.66;4987493;28;1027837;-66
2023/08/02 10:17:02;;;;;;;2.92;2.40;;;;;;;18.81;100.00;98987.66;5020890;28;20044;-65
2023/08/02 10:19:33;;;;;;;3.20;2.33;;;;;;;19.04;100.00;98977.38;5028869;28;20033;-66
2023/08/02 10:22:06;;;;;;;3.55;2.30;;;;;;;19.29;100.00;98976.53;5023690;28;20045;-66
2023/08/02 10:24:31;;;;;;;3.15;2.80;;;;;;;19.46;100.00;98972.47;5025142;28;20398;-66
2023/08/02 10:26:58;;;;;;;2.55;2.35;;;;;;;19.71;100.00;98955.44;5025925;28;20032;-66
2023/08/02 10:29:26;;;;;;;3.95;2.40;;;;;;;20.03;100.00;98960.38;5018525;28;20498;-66
2023/08/02 10:31:51;;;;;;;2.30;2.10;;;;;;;20.13;100.00;98947.94;5021863;28;20033;-66
2023/08/02 10:34:39;;;;;;;2.97;1.77;;;;;;;20.31;100.00;98958.88;5021314;28;20017;-66
2023/08/02 10:37:05;;;;;;;2.78;1.50;;;;;;;20.30;100.00;98940.28;5023855;28;20033;-65
2023/08/02 10:39:46;;;;;;;2.28;1.58;;;;;;;20.36;100.00;98936.44;5025451;28;20028;-66
2023/08/02 10:42:15;;;;;;;2.10;1.85;;;;;;;20.41;100.00;98923.75;5034184;28;20017;-65
2023/08/02 10:45:01;;;;;;;1.70;1.60;;;;;;;20.47;100.00;98929.09;5027623;28;20479;-66
2023/08/02 10:47:28;;;;;;;1.70;1.60;;;;;;;20.46;100.00;98922.91;5026593;28;20075;-66
2023/08/02 10:49:55;;;;;;;1.48;1.38;;;;;;;20.38;100.00;98913.50;5019382;28;20187;-65
2023/08/02 10:52:29;;;;;;;2.45;1.10;;;;;;;20.26;100.00;98917.66;5025404;28;20028;-66
2023/08/02 10:55:15;;;;;;;1.88;1.40;;;;;;;20.11;100.00;98927.44;5026724;28;20021;-66
2023/08/02 10:57:56;;;;;;;2.25;1.15;;;;;;;19.94;100.00;98940.47;5029753;28;20490;-65
2023/08/02 11:00:24;;;;;;;1.35;1.25;;;;;;;19.81;100.00;98941.09;5020292;28;20029;-66
2023/08/02 11:02:51;;;;;;;1.83;1.60;;;;;;;19.74;100.00;98932.53;5018688;28;20053;-66
2023/08/02 11:05:35;;;;;;;1.83;1.30;;;;;;;19.67;100.00;98940.13;5029981;28;20113;-66
2023/08/02 11:08:00;;;;;;;4.40;1.65;;;;;;;19.54;100.00;98986.47;5018141;28;20017;-67
2023/08/02 11:10:26;;;;;;;4.60;1.38;;;;;;;18.52;100.00;98960.47;5023395;28;20071;-78
2023/08/02 11:12:53;;;;;;;2.58;0.90;;;;;;;17.62;100.00;98930.41;5013013;28;20030;-68
2023/08/02 11:15:18;;;;;;;3.28;1.25;;;;;;;17.23;100.00;98921.13;5017390;28;20037;-67
2023/08/02 11:17:43;;;;;;;2.40;1.50;;;;;;;17.11;100.00;98929.38;5020624;28;20111;-68
2023/08/02 11:20:09;;;;;;;4.68;2.00;;;;;;;17.13;100.00;98931.81;5020190;28;20022;-67